SVA1459 OERK-OEMA
Flight info
| Callsign | SVA1459 |
|---|---|
| Flight time | 1h 31m |
| Altitude | 40000 |
| Route | IVONU Y216 ITSEP |
| Aircraft | A333/H-SDE3GHIJ2J3J5M1RVWXY/LB2D1 |
Departure
| Time | 2026-04-21 13:38 |
|---|---|
| Airport | King Khalid International Airport (OERK) |
Arrival
| Time | 2026-04-21 15:09 |
|---|---|
| Airport | Prince Mohammad Bin Abdulaziz Airport (OEMA) |
| Time | Latitude | Longitude | Altitude | Speed | Heading |
|---|---|---|---|---|---|
| 2026-04-21 13:38 | 24.89399 | 46.82267 | 8557 ft | 222 kts | 162° |
| 2026-04-21 13:38 | 24.87895 | 46.82429 | 9191 ft | 219 kts | 185° |
| 2026-04-21 13:38 | 24.86357 | 46.82446 | 9807 ft | 222 kts | 179° |
| 2026-04-21 13:38 | 24.84807 | 46.82578 | 10412 ft | 226 kts | 178° |
| 2026-04-21 13:39 | 24.83248 | 46.82743 | 11089 ft | 226 kts | 179° |
| 2026-04-21 13:39 | 24.81673 | 46.82923 | 11660 ft | 231 kts | 178° |
| 2026-04-21 13:39 | 24.80065 | 46.83112 | 12296 ft | 233 kts | 179° |
| 2026-04-21 13:39 | 24.78466 | 46.83399 | 12881 ft | 239 kts | 171° |
| 2026-04-21 13:40 | 24.76844 | 46.83887 | 13431 ft | 243 kts | 172° |
| 2026-04-21 13:40 | 24.75185 | 46.84354 | 14000 ft | 247 kts | 172° |
| 2026-04-21 13:40 | 24.73508 | 46.84822 | 14588 ft | 250 kts | 173° |
| 2026-04-21 13:40 | 24.71845 | 46.85290 | 15356 ft | 243 kts | 174° |
| 2026-04-21 13:41 | 24.70234 | 46.85738 | 16030 ft | 240 kts | 175° |
| 2026-04-21 13:41 | 24.68575 | 46.86194 | 16455 ft | 247 kts | 174° |
| 2026-04-21 13:41 | 24.66902 | 46.86660 | 16955 ft | 251 kts | 175° |
| 2026-04-21 13:41 | 24.65193 | 46.87046 | 17356 ft | 249 kts | 190° |
| 2026-04-21 13:42 | 24.63603 | 46.86632 | 17868 ft | 230 kts | 219° |
| 2026-04-21 13:42 | 24.62479 | 46.85457 | 18378 ft | 222 kts | 240° |
| 2026-04-21 13:42 | 24.61647 | 46.84003 | 18799 ft | 227 kts | 243° |
| 2026-04-21 13:42 | 24.60853 | 46.82509 | 19307 ft | 230 kts | 244° |
| 2026-04-21 13:43 | 24.60066 | 46.80972 | 19805 ft | 232 kts | 245° |
| 2026-04-21 13:43 | 24.59274 | 46.79398 | 20218 ft | 238 kts | 244° |
| 2026-04-21 13:43 | 24.58467 | 46.77789 | 20737 ft | 240 kts | 245° |
| 2026-04-21 13:43 | 24.57665 | 46.76185 | 21175 ft | 244 kts | 244° |
| 2026-04-21 13:44 | 24.56838 | 46.74533 | 21599 ft | 248 kts | 245° |
| 2026-04-21 13:44 | 24.56008 | 46.72871 | 22034 ft | 252 kts | 245° |
| 2026-04-21 13:44 | 24.55146 | 46.71153 | 22459 ft | 257 kts | 245° |
| 2026-04-21 13:44 | 24.54289 | 46.69439 | 22935 ft | 259 kts | 245° |
| 2026-04-21 13:45 | 24.53422 | 46.67709 | 23436 ft | 260 kts | 245° |
| 2026-04-21 13:45 | 24.52842 | 46.65857 | 23825 ft | 259 kts | 268° |
| 2026-04-21 13:45 | 24.53122 | 46.63899 | 24169 ft | 268 kts | 291° |
| 2026-04-21 13:45 | 24.54116 | 46.62147 | 24695 ft | 269 kts | 297° |
| 2026-04-21 13:46 | 24.55087 | 46.60405 | 25176 ft | 269 kts | 296° |
| 2026-04-21 13:46 | 24.56061 | 46.58643 | 25573 ft | 273 kts | 296° |
| 2026-04-21 13:46 | 24.57047 | 46.56847 | 25934 ft | 278 kts | 296° |
| 2026-04-21 13:46 | 24.58051 | 46.55019 | 26494 ft | 276 kts | 297° |
| 2026-04-21 13:47 | 24.59036 | 46.53228 | 26954 ft | 277 kts | 297° |
| 2026-04-21 13:47 | 24.60033 | 46.51404 | 27344 ft | 281 kts | 297° |
| 2026-04-21 13:47 | 24.61048 | 46.49556 | 27717 ft | 285 kts | 296° |
| 2026-04-21 13:47 | 24.62062 | 46.47709 | 28141 ft | 287 kts | 297° |
| 2026-04-21 13:48 | 24.63097 | 46.45817 | 28533 ft | 290 kts | 297° |
| 2026-04-21 13:48 | 24.64135 | 46.43922 | 28971 ft | 291 kts | 296° |
| 2026-04-21 13:48 | 24.65179 | 46.42014 | 29429 ft | 292 kts | 296° |
| 2026-04-21 13:48 | 24.66224 | 46.40107 | 29752 ft | 296 kts | 296° |
| 2026-04-21 13:49 | 24.67294 | 46.38148 | 30124 ft | 298 kts | 296° |
| 2026-04-21 13:49 | 24.68365 | 46.36189 | 30547 ft | 299 kts | 297° |
| 2026-04-21 13:49 | 24.69427 | 46.34253 | 30944 ft | 300 kts | 295° |
| 2026-04-21 13:49 | 24.70506 | 46.32268 | 31317 ft | 302 kts | 295° |
| 2026-04-21 13:50 | 24.71584 | 46.30301 | 31754 ft | 302 kts | 295° |
| 2026-04-21 13:50 | 24.72673 | 46.28301 | 32008 ft | 307 kts | 295° |
| 2026-04-21 13:50 | 24.73786 | 46.26260 | 32352 ft | 310 kts | 295° |
| 2026-04-21 13:50 | 24.74893 | 46.24233 | 32774 ft | 309 kts | 295° |
| 2026-04-21 13:51 | 24.75993 | 46.22217 | 33236 ft | 310 kts | 295° |
| 2026-04-21 13:51 | 24.77110 | 46.20167 | 33488 ft | 315 kts | 294° |
| 2026-04-21 13:51 | 24.78251 | 46.18075 | 33864 ft | 318 kts | 294° |
| 2026-04-21 13:51 | 24.79394 | 46.15976 | 34205 ft | 321 kts | 295° |
| 2026-04-21 13:52 | 24.80533 | 46.13881 | 34598 ft | 322 kts | 295° |
| 2026-04-21 13:52 | 24.81694 | 46.11749 | 34949 ft | 324 kts | 295° |
| 2026-04-21 13:52 | 24.82856 | 46.09616 | 35192 ft | 329 kts | 294° |
| 2026-04-21 13:52 | 24.84033 | 46.07446 | 35476 ft | 332 kts | 295° |
| 2026-04-21 13:53 | 24.85206 | 46.05286 | 35879 ft | 332 kts | 295° |
| 2026-04-21 13:53 | 24.86407 | 46.03079 | 36198 ft | 334 kts | 295° |
| 2026-04-21 13:53 | 24.87588 | 46.00901 | 36387 ft | 337 kts | 294° |
| 2026-04-21 13:53 | 24.88800 | 45.98664 | 36674 ft | 340 kts | 296° |
| 2026-04-21 13:54 | 24.90006 | 45.96445 | 36973 ft | 341 kts | 294° |
| 2026-04-21 13:54 | 24.91225 | 45.94186 | 37141 ft | 345 kts | 294° |
| 2026-04-21 13:54 | 24.92451 | 45.91931 | 37409 ft | 346 kts | 295° |
| 2026-04-21 13:54 | 24.93688 | 45.89642 | 37562 ft | 350 kts | 294° |
| 2026-04-21 13:55 | 24.94944 | 45.87322 | 37793 ft | 351 kts | 294° |
| 2026-04-21 13:55 | 24.96193 | 45.85018 | 38005 ft | 354 kts | 295° |
| 2026-04-21 13:55 | 24.97459 | 45.82666 | 37846 ft | 358 kts | 294° |
| 2026-04-21 13:55 | 24.98730 | 45.80323 | 37948 ft | 353 kts | 294° |
| 2026-04-21 13:56 | 25.01243 | 45.75664 | 37918 ft | 355 kts | 295° |
| 2026-04-21 13:56 | 25.03780 | 45.70963 | 37904 ft | 354 kts | 295° |
| 2026-04-21 13:57 | 25.05498 | 45.66008 | 37918 ft | 346 kts | 271° |
| 2026-04-21 13:57 | 25.05158 | 45.60696 | 37890 ft | 350 kts | 267° |
| 2026-04-21 13:58 | 25.04786 | 45.55352 | 37894 ft | 350 kts | 266° |
| 2026-04-21 13:58 | 25.04408 | 45.49986 | 37897 ft | 350 kts | 268° |
| 2026-04-21 13:59 | 25.04025 | 45.44634 | 37891 ft | 350 kts | 267° |
| 2026-04-21 13:59 | 25.03651 | 45.39333 | 37887 ft | 349 kts | 268° |
| 2026-04-21 14:00 | 25.03265 | 45.33998 | 37897 ft | 352 kts | 266° |
| 2026-04-21 14:00 | 25.02882 | 45.28640 | 37901 ft | 349 kts | 266° |
| 2026-04-21 14:01 | 25.02495 | 45.23287 | 37920 ft | 352 kts | 266° |
| 2026-04-21 14:01 | 25.02099 | 45.17916 | 37904 ft | 351 kts | 267° |
| 2026-04-21 14:02 | 25.01709 | 45.12550 | 37907 ft | 353 kts | 267° |
| 2026-04-21 14:03 | 25.01112 | 45.04498 | 37889 ft | 352 kts | 267° |
| 2026-04-21 14:03 | 25.00715 | 44.99086 | 37901 ft | 354 kts | 267° |
| 2026-04-21 14:04 | 25.00315 | 44.93701 | 37896 ft | 353 kts | 266° |
| 2026-04-21 14:04 | 24.99910 | 44.88319 | 37905 ft | 353 kts | 268° |
| 2026-04-21 14:05 | 24.99505 | 44.82947 | 37902 ft | 353 kts | 266° |
| 2026-04-21 14:05 | 24.99099 | 44.77557 | 37895 ft | 352 kts | 267° |
| 2026-04-21 14:06 | 24.98691 | 44.72186 | 37899 ft | 353 kts | 267° |
| 2026-04-21 14:06 | 24.98281 | 44.66809 | 37900 ft | 354 kts | 267° |
| 2026-04-21 14:07 | 24.97867 | 44.61389 | 37906 ft | 353 kts | 267° |
| 2026-04-21 14:07 | 24.97452 | 44.56041 | 37902 ft | 353 kts | 267° |
| 2026-04-21 14:08 | 24.97035 | 44.50660 | 37911 ft | 352 kts | 267° |
| 2026-04-21 14:08 | 24.96686 | 44.45290 | 37913 ft | 351 kts | 270° |
| 2026-04-21 14:09 | 24.96518 | 44.39931 | 37912 ft | 351 kts | 269° |
| 2026-04-21 14:09 | 24.96342 | 44.34564 | 37990 ft | 353 kts | 269° |
| 2026-04-21 14:09 | 24.96249 | 44.31858 | 38208 ft | 354 kts | 269° |
| 2026-04-21 14:10 | 24.96162 | 44.29145 | 38443 ft | 355 kts | 269° |
| 2026-04-21 14:10 | 24.96069 | 44.26436 | 38599 ft | 357 kts | 269° |
| 2026-04-21 14:10 | 24.95975 | 44.23685 | 38764 ft | 359 kts | 268° |
| 2026-04-21 14:10 | 24.95884 | 44.20955 | 38920 ft | 360 kts | 268° |
| 2026-04-21 14:11 | 24.95788 | 44.18203 | 39067 ft | 361 kts | 269° |
| 2026-04-21 14:11 | 24.95692 | 44.15416 | 39226 ft | 363 kts | 269° |
| 2026-04-21 14:11 | 24.95596 | 44.12667 | 39368 ft | 364 kts | 269° |
| 2026-04-21 14:11 | 24.95499 | 44.09874 | 39515 ft | 364 kts | 269° |
| 2026-04-21 14:12 | 24.95401 | 44.07080 | 39661 ft | 365 kts | 269° |
| 2026-04-21 14:12 | 24.95304 | 44.04297 | 39804 ft | 365 kts | 269° |
| 2026-04-21 14:12 | 24.95204 | 44.01502 | 39925 ft | 367 kts | 268° |
| 2026-04-21 14:13 | 24.95005 | 43.95810 | 39923 ft | 374 kts | 269° |
| 2026-04-21 14:13 | 24.94799 | 43.90099 | 39917 ft | 378 kts | 269° |
| 2026-04-21 14:14 | 24.94589 | 43.84279 | 39923 ft | 382 kts | 268° |
| 2026-04-21 14:14 | 24.94376 | 43.78421 | 39908 ft | 385 kts | 269° |
| 2026-04-21 14:15 | 24.94157 | 43.72523 | 39914 ft | 386 kts | 269° |
| 2026-04-21 14:15 | 24.93937 | 43.66607 | 39920 ft | 388 kts | 269° |
| 2026-04-21 14:16 | 24.93712 | 43.60664 | 39922 ft | 386 kts | 269° |
| 2026-04-21 14:16 | 24.93488 | 43.54812 | 39926 ft | 382 kts | 269° |
| 2026-04-21 14:17 | 24.93267 | 43.48964 | 39937 ft | 382 kts | 269° |
| 2026-04-21 14:17 | 24.93040 | 43.43128 | 39928 ft | 384 kts | 268° |
| 2026-04-21 14:18 | 24.92806 | 43.37214 | 39931 ft | 384 kts | 269° |
| 2026-04-21 14:18 | 24.92576 | 43.31379 | 39973 ft | 383 kts | 269° |
| 2026-04-21 14:19 | 24.92341 | 43.25544 | 39966 ft | 383 kts | 268° |
| 2026-04-21 14:19 | 24.92103 | 43.19665 | 39971 ft | 384 kts | 269° |
| 2026-04-21 14:20 | 24.91868 | 43.13827 | 39961 ft | 382 kts | 268° |
| 2026-04-21 14:20 | 24.91624 | 43.07997 | 39954 ft | 382 kts | 268° |
| 2026-04-21 14:21 | 24.91383 | 43.02153 | 39952 ft | 384 kts | 268° |
| 2026-04-21 14:21 | 24.91136 | 42.96270 | 39956 ft | 385 kts | 269° |
| 2026-04-21 14:22 | 24.90886 | 42.90382 | 39952 ft | 385 kts | 269° |
| 2026-04-21 14:22 | 24.90635 | 42.84513 | 39942 ft | 384 kts | 268° |
| 2026-04-21 14:23 | 24.90380 | 42.78648 | 39935 ft | 383 kts | 269° |
| 2026-04-21 14:23 | 24.90127 | 42.72780 | 39932 ft | 383 kts | 269° |
| 2026-04-21 14:24 | 24.89870 | 42.66954 | 39934 ft | 384 kts | 268° |
| 2026-04-21 14:24 | 24.89612 | 42.61094 | 39934 ft | 383 kts | 268° |
| 2026-04-21 14:25 | 24.89349 | 42.55234 | 39932 ft | 381 kts | 268° |
| 2026-04-21 14:25 | 24.89082 | 42.49396 | 39935 ft | 382 kts | 269° |
| 2026-04-21 14:26 | 24.88818 | 42.43534 | 39927 ft | 382 kts | 269° |
| 2026-04-21 14:26 | 24.88551 | 42.37717 | 39926 ft | 382 kts | 269° |
| 2026-04-21 14:27 | 24.87951 | 42.31944 | 39967 ft | 377 kts | 264° |
| 2026-04-21 14:27 | 24.87277 | 42.26264 | 39955 ft | 373 kts | 264° |
| 2026-04-21 14:28 | 24.86604 | 42.20610 | 39950 ft | 372 kts | 265° |
| 2026-04-21 14:28 | 24.85934 | 42.14952 | 39948 ft | 374 kts | 264° |
| 2026-04-21 14:29 | 24.85256 | 42.09288 | 39952 ft | 372 kts | 264° |
| 2026-04-21 14:29 | 24.84585 | 42.03693 | 39953 ft | 372 kts | 265° |
| 2026-04-21 14:30 | 24.83907 | 41.98057 | 39933 ft | 373 kts | 264° |
| 2026-04-21 14:30 | 24.83233 | 41.92453 | 39928 ft | 359 kts | 264° |
| 2026-04-21 14:30 | 24.82911 | 41.89801 | 39917 ft | 345 kts | 264° |
| 2026-04-21 14:31 | 24.82596 | 41.87209 | 39921 ft | 338 kts | 265° |
| 2026-04-21 14:31 | 24.81970 | 41.82023 | 39945 ft | 347 kts | 265° |
| 2026-04-21 14:32 | 24.81323 | 41.76705 | 39260 ft | 360 kts | 265° |
| 2026-04-21 14:32 | 24.80990 | 41.73972 | 38678 ft | 356 kts | 265° |
| 2026-04-21 14:32 | 24.80661 | 41.71291 | 38119 ft | 351 kts | 265° |
| 2026-04-21 14:32 | 24.80344 | 41.68679 | 37576 ft | 346 kts | 264° |
| 2026-04-21 14:33 | 24.80025 | 41.66079 | 37009 ft | 343 kts | 264° |
| 2026-04-21 14:33 | 24.79707 | 41.63488 | 36421 ft | 339 kts | 265° |
| 2026-04-21 14:33 | 24.79392 | 41.60924 | 35832 ft | 336 kts | 265° |
| 2026-04-21 14:33 | 24.79081 | 41.58400 | 35263 ft | 333 kts | 264° |
| 2026-04-21 14:34 | 24.78775 | 41.55912 | 34706 ft | 330 kts | 264° |
| 2026-04-21 14:34 | 24.78471 | 41.53442 | 34172 ft | 326 kts | 264° |
| 2026-04-21 14:34 | 24.78165 | 41.50966 | 33636 ft | 323 kts | 264° |
| 2026-04-21 14:34 | 24.77869 | 41.48562 | 33082 ft | 320 kts | 264° |
| 2026-04-21 14:35 | 24.77567 | 41.46131 | 32515 ft | 320 kts | 264° |
| 2026-04-21 14:35 | 24.77270 | 41.43733 | 31937 ft | 319 kts | 264° |
| 2026-04-21 14:35 | 24.76968 | 41.41301 | 31375 ft | 319 kts | 264° |
| 2026-04-21 14:35 | 24.76669 | 41.38899 | 30874 ft | 317 kts | 264° |
| 2026-04-21 14:36 | 24.76372 | 41.36511 | 30424 ft | 313 kts | 264° |
| 2026-04-21 14:36 | 24.76078 | 41.34156 | 30012 ft | 310 kts | 264° |
| 2026-04-21 14:36 | 24.75786 | 41.31827 | 29611 ft | 307 kts | 264° |
| 2026-04-21 14:36 | 24.75499 | 41.29516 | 29195 ft | 304 kts | 264° |
| 2026-04-21 14:37 | 24.75209 | 41.27205 | 28743 ft | 302 kts | 264° |
| 2026-04-21 14:37 | 24.74925 | 41.24928 | 28284 ft | 301 kts | 263° |
| 2026-04-21 14:37 | 24.74638 | 41.22651 | 27816 ft | 299 kts | 263° |
| 2026-04-21 14:37 | 24.74357 | 41.20402 | 27373 ft | 297 kts | 263° |
| 2026-04-21 14:38 | 24.74076 | 41.18181 | 26958 ft | 295 kts | 263° |
| 2026-04-21 14:38 | 24.73795 | 41.15945 | 26574 ft | 292 kts | 263° |
| 2026-04-21 14:38 | 24.73523 | 41.13778 | 26214 ft | 288 kts | 263° |
| 2026-04-21 14:38 | 24.73246 | 41.11593 | 25857 ft | 285 kts | 263° |
| 2026-04-21 14:39 | 24.72976 | 41.09457 | 25507 ft | 281 kts | 263° |
| 2026-04-21 14:39 | 24.72709 | 41.07352 | 25157 ft | 278 kts | 263° |
| 2026-04-21 14:39 | 24.72444 | 41.05257 | 24790 ft | 276 kts | 263° |
| 2026-04-21 14:39 | 24.72183 | 41.03191 | 24421 ft | 274 kts | 263° |
| 2026-04-21 14:40 | 24.71920 | 41.01115 | 24038 ft | 272 kts | 263° |
| 2026-04-21 14:40 | 24.71663 | 40.99085 | 23646 ft | 271 kts | 263° |
| 2026-04-21 14:40 | 24.71402 | 40.97036 | 23247 ft | 269 kts | 263° |
| 2026-04-21 14:40 | 24.71145 | 40.95014 | 22848 ft | 268 kts | 263° |
| 2026-04-21 14:41 | 24.70886 | 40.92992 | 22459 ft | 267 kts | 263° |
| 2026-04-21 14:41 | 24.70629 | 40.90966 | 22071 ft | 266 kts | 263° |
| 2026-04-21 14:41 | 24.70372 | 40.88958 | 21688 ft | 265 kts | 263° |
| 2026-04-21 14:41 | 24.70119 | 40.86974 | 21321 ft | 264 kts | 263° |
| 2026-04-21 14:42 | 24.69864 | 40.84980 | 20952 ft | 263 kts | 262° |
| 2026-04-21 14:42 | 24.69609 | 40.82993 | 20581 ft | 262 kts | 262° |
| 2026-04-21 14:42 | 24.69356 | 40.81012 | 20217 ft | 261 kts | 262° |
| 2026-04-21 14:42 | 24.69103 | 40.79040 | 19860 ft | 260 kts | 262° |
| 2026-04-21 14:43 | 24.68852 | 40.77099 | 19509 ft | 259 kts | 262° |
| 2026-04-21 14:43 | 24.68601 | 40.75143 | 19156 ft | 258 kts | 262° |
| 2026-04-21 14:43 | 24.68349 | 40.73192 | 18805 ft | 257 kts | 262° |
| 2026-04-21 14:43 | 24.68098 | 40.71245 | 18453 ft | 256 kts | 261° |
| 2026-04-21 14:44 | 24.67853 | 40.69334 | 18109 ft | 255 kts | 261° |
| 2026-04-21 14:44 | 24.67602 | 40.67396 | 17764 ft | 255 kts | 261° |
| 2026-04-21 14:44 | 24.67357 | 40.65496 | 17417 ft | 254 kts | 261° |
| 2026-04-21 14:44 | 24.67107 | 40.63576 | 17068 ft | 254 kts | 261° |
| 2026-04-21 14:45 | 24.66859 | 40.61659 | 16717 ft | 253 kts | 261° |
| 2026-04-21 14:45 | 24.66611 | 40.59753 | 16363 ft | 253 kts | 261° |
| 2026-04-21 14:45 | 24.66361 | 40.57828 | 16024 ft | 253 kts | 261° |
| 2026-04-21 14:45 | 24.66113 | 40.55913 | 15686 ft | 252 kts | 261° |
| 2026-04-21 14:46 | 24.65866 | 40.54021 | 15356 ft | 251 kts | 261° |
| 2026-04-21 14:46 | 24.65619 | 40.52124 | 15022 ft | 251 kts | 261° |
| 2026-04-21 14:46 | 24.65374 | 40.50235 | 14833 ft | 244 kts | 261° |
| 2026-04-21 14:46 | 24.65137 | 40.48428 | 14820 ft | 235 kts | 261° |
| 2026-04-21 14:47 | 24.64905 | 40.46646 | 14806 ft | 233 kts | 261° |
| 2026-04-21 14:47 | 24.64675 | 40.44889 | 14798 ft | 232 kts | 261° |
| 2026-04-21 14:47 | 24.64446 | 40.43141 | 14795 ft | 234 kts | 261° |
| 2026-04-21 14:47 | 24.64214 | 40.41376 | 14788 ft | 233 kts | 261° |
| 2026-04-21 14:48 | 24.63981 | 40.39596 | 14783 ft | 235 kts | 261° |
| 2026-04-21 14:48 | 24.63750 | 40.37841 | 14778 ft | 235 kts | 261° |
| 2026-04-21 14:48 | 24.63515 | 40.36050 | 14771 ft | 236 kts | 261° |
| 2026-04-21 14:48 | 24.63281 | 40.34274 | 14775 ft | 234 kts | 261° |
| 2026-04-21 14:49 | 24.63049 | 40.32503 | 14773 ft | 234 kts | 260° |
| 2026-04-21 14:49 | 24.62816 | 40.30738 | 14782 ft | 234 kts | 261° |
| 2026-04-21 14:49 | 24.62583 | 40.28973 | 14789 ft | 235 kts | 261° |
| 2026-04-21 14:49 | 24.62351 | 40.27214 | 14799 ft | 234 kts | 261° |
| 2026-04-21 14:50 | 24.62196 | 40.26043 | 14801 ft | 233 kts | 261° |
| 2026-04-21 14:50 | 24.61882 | 40.23664 | 14807 ft | 234 kts | 261° |
| 2026-04-21 14:50 | 24.61649 | 40.21895 | 14812 ft | 235 kts | 261° |
| 2026-04-21 14:50 | 24.61414 | 40.20115 | 14810 ft | 234 kts | 261° |
| 2026-04-21 14:51 | 24.61182 | 40.18372 | 14809 ft | 234 kts | 261° |
| 2026-04-21 14:51 | 24.60944 | 40.16583 | 14814 ft | 232 kts | 261° |
| 2026-04-21 14:51 | 24.60714 | 40.14841 | 14815 ft | 234 kts | 260° |
| 2026-04-21 14:51 | 24.60479 | 40.13077 | 14819 ft | 233 kts | 261° |
| 2026-04-21 14:52 | 24.60244 | 40.11312 | 14820 ft | 233 kts | 261° |
| 2026-04-21 14:52 | 24.60006 | 40.09531 | 14826 ft | 234 kts | 261° |
| 2026-04-21 14:52 | 24.59771 | 40.07767 | 14831 ft | 235 kts | 261° |
| 2026-04-21 14:52 | 24.59537 | 40.06005 | 14833 ft | 235 kts | 261° |
| 2026-04-21 14:53 | 24.59303 | 40.04234 | 14835 ft | 235 kts | 261° |
| 2026-04-21 14:53 | 24.59077 | 40.02441 | 14826 ft | 235 kts | 261° |
| 2026-04-21 14:53 | 24.58852 | 40.00663 | 14826 ft | 235 kts | 261° |
| 2026-04-21 14:53 | 24.58627 | 39.98899 | 14818 ft | 234 kts | 261° |
| 2026-04-21 14:54 | 24.58400 | 39.97116 | 14822 ft | 237 kts | 261° |
| 2026-04-21 14:54 | 24.58170 | 39.95319 | 14820 ft | 235 kts | 261° |
| 2026-04-21 14:54 | 24.57944 | 39.93538 | 14811 ft | 235 kts | 261° |
| 2026-04-21 14:54 | 24.57719 | 39.91772 | 14793 ft | 235 kts | 261° |
| 2026-04-21 14:55 | 24.57492 | 39.89996 | 14790 ft | 235 kts | 261° |
| 2026-04-21 14:55 | 24.57264 | 39.88216 | 14786 ft | 236 kts | 261° |
| 2026-04-21 14:55 | 24.57036 | 39.86435 | 14791 ft | 235 kts | 261° |
| 2026-04-21 14:55 | 24.56781 | 39.84668 | 14775 ft | 235 kts | 253° |
| 2026-04-21 14:56 | 24.55928 | 39.83134 | 14775 ft | 239 kts | 225° |
| 2026-04-21 14:56 | 24.54428 | 39.82302 | 14794 ft | 253 kts | 197° |
| 2026-04-21 14:56 | 24.52623 | 39.82397 | 14820 ft | 267 kts | 171° |
| 2026-04-21 14:56 | 24.50824 | 39.82857 | 14842 ft | 262 kts | 184° |
| 2026-04-21 14:57 | 24.49090 | 39.82502 | 14852 ft | 246 kts | 213° |
| 2026-04-21 14:57 | 24.47833 | 39.81314 | 14868 ft | 239 kts | 232° |
| 2026-04-21 14:57 | 24.46545 | 39.80101 | 14636 ft | 248 kts | 216° |
| 2026-04-21 14:57 | 24.44955 | 39.79341 | 14402 ft | 252 kts | 202° |
| 2026-04-21 14:58 | 24.43213 | 39.78992 | 14175 ft | 255 kts | 191° |
| 2026-04-21 14:58 | 24.41427 | 39.78964 | 13945 ft | 256 kts | 184° |
| 2026-04-21 14:58 | 24.39644 | 39.79136 | 13726 ft | 257 kts | 180° |
| 2026-04-21 14:58 | 24.37882 | 39.79386 | 13512 ft | 256 kts | 179° |
| 2026-04-21 14:59 | 24.36112 | 39.79895 | 13036 ft | 275 kts | 158° |
| 2026-04-21 14:59 | 24.34629 | 39.81307 | 12504 ft | 296 kts | 130° |
| 2026-04-21 14:59 | 24.33552 | 39.83275 | 12062 ft | 303 kts | 124° |
| 2026-04-21 14:59 | 24.32459 | 39.85260 | 11642 ft | 304 kts | 131° |
| 2026-04-21 15:00 | 24.30923 | 39.86779 | 11270 ft | 296 kts | 153° |
| 2026-04-21 15:00 | 24.29015 | 39.87537 | 10902 ft | 287 kts | 173° |
| 2026-04-21 15:00 | 24.27039 | 39.87957 | 10552 ft | 288 kts | 173° |
| 2026-04-21 15:00 | 24.25098 | 39.88368 | 10219 ft | 287 kts | 173° |
| 2026-04-21 15:01 | 24.23136 | 39.88415 | 9892 ft | 278 kts | 196° |
| 2026-04-21 15:01 | 24.21436 | 39.87532 | 9632 ft | 267 kts | 222° |
| 2026-04-21 15:01 | 24.20309 | 39.85940 | 9223 ft | 266 kts | 248° |
| 2026-04-21 15:01 | 24.19773 | 39.84014 | 8916 ft | 264 kts | 256° |
| 2026-04-21 15:02 | 24.19391 | 39.82054 | 8594 ft | 264 kts | 265° |
| 2026-04-21 15:02 | 24.19658 | 39.80092 | 8302 ft | 264 kts | 292° |
| 2026-04-21 15:02 | 24.20760 | 39.78487 | 7957 ft | 268 kts | 319° |
| 2026-04-21 15:02 | 24.22456 | 39.77626 | 7659 ft | 272 kts | 346° |
| 2026-04-21 15:03 | 24.24322 | 39.77350 | 7374 ft | 271 kts | 349° |
| 2026-04-21 15:03 | 24.26179 | 39.76986 | 7081 ft | 270 kts | 347° |
| 2026-04-21 15:03 | 24.28025 | 39.76606 | 6791 ft | 268 kts | 347° |
| 2026-04-21 15:03 | 24.29863 | 39.76220 | 6510 ft | 267 kts | 347° |
| 2026-04-21 15:04 | 24.31675 | 39.75836 | 6233 ft | 263 kts | 347° |
| 2026-04-21 15:04 | 24.33441 | 39.75463 | 5960 ft | 252 kts | 347° |
| 2026-04-21 15:04 | 24.35142 | 39.75104 | 5692 ft | 243 kts | 347° |
| 2026-04-21 15:04 | 24.36788 | 39.74754 | 5429 ft | 234 kts | 347° |
| 2026-04-21 15:05 | 24.38357 | 39.74417 | 5168 ft | 227 kts | 346° |
| 2026-04-21 15:05 | 24.41396 | 39.73768 | 4540 ft | 213 kts | 347° |
| 2026-04-21 15:05 | 24.42785 | 39.73475 | 4271 ft | 192 kts | 347° |
| 2026-04-21 15:06 | 24.44011 | 39.73217 | 4166 ft | 165 kts | 346° |
| 2026-04-21 15:06 | 24.45145 | 39.72975 | 3682 ft | 162 kts | 346° |
| 2026-04-21 15:06 | 24.46196 | 39.72760 | 3444 ft | 151 kts | 347° |
| 2026-04-21 15:06 | 24.47212 | 39.72575 | 3231 ft | 145 kts | 348° |
| 2026-04-21 15:07 | 24.48212 | 39.72386 | 3122 ft | 145 kts | 347° |
| 2026-04-21 15:07 | 24.49207 | 39.72173 | 2945 ft | 145 kts | 345° |
| 2026-04-21 15:07 | 24.50183 | 39.71946 | 2753 ft | 144 kts | 345° |
| 2026-04-21 15:07 | 24.51161 | 39.71720 | 2596 ft | 143 kts | 347° |
| 2026-04-21 15:08 | 24.52146 | 39.71513 | 2390 ft | 143 kts | 347° |
| 2026-04-21 15:08 | 24.53130 | 39.71296 | 2232 ft | 142 kts | 347° |
| 2026-04-21 15:08 | 24.54104 | 39.71086 | 2086 ft | 140 kts | 347° |
| 2026-04-21 15:08 | 24.54965 | 39.70900 | 2103 ft | 103 kts | 349° |
| 2026-04-21 15:09 | 24.55491 | 39.70788 | 2129 ft | 54 kts | 348° |
| 2026-04-21 15:09 | 24.55712 | 39.70741 | 2137 ft | 19 kts | 349° |
| 2026-04-21 15:09 | 24.55860 | 39.70709 | 2139 ft | 28 kts | 349° |
| 2026-04-21 15:09 | 24.56077 | 39.70685 | 2141 ft | 34 kts | 6° |
| 2026-04-21 15:10 | 24.56269 | 39.70769 | 2145 ft | 15 kts | 71° |
| 2026-04-21 15:10 | 24.56204 | 39.70827 | 2147 ft | 12 kts | 167° |
| 2026-04-21 15:10 | 24.56118 | 39.70846 | 2146 ft | 12 kts | 169° |
| 2026-04-21 15:10 | 24.56009 | 39.70889 | 2146 ft | 18 kts | 122° |
| 2026-04-21 15:11 | 24.56016 | 39.71016 | 2150 ft | 15 kts | 85° |
| 2026-04-21 15:11 | 24.55949 | 39.71080 | 2152 ft | 18 kts | 167° |
| 2026-04-21 15:11 | 24.55740 | 39.71124 | 2150 ft | 39 kts | 169° |
| 2026-04-21 15:11 | 24.55456 | 39.71184 | 2140 ft | 43 kts | 169° |
| 2026-04-21 15:12 | 24.55146 | 39.71250 | 2119 ft | 35 kts | 169° |
| 2026-04-21 15:12 | 24.55038 | 39.71285 | 2112 ft | 10 kts | 131° |
| 2026-04-21 15:12 | 24.55033 | 39.71350 | 2114 ft | 6 kts | 79° |
| 2026-04-21 15:12 | 24.55035 | 39.71365 | 2114 ft | 0 kts | 79° |